sensor_id;sensor_type;location;lat;lon;timestamp;P1;durP1;ratioP1;P2;durP2;ratioP2
73697;SDS011;62004;42.566;23.164;2023-02-05T00:00:47;35.10;;;32.60;;
73697;SDS011;62004;42.566;23.164;2023-02-05T00:03:12;33.37;;;31.07;;
73697;SDS011;62004;42.566;23.164;2023-02-05T00:05:38;28.23;;;26.43;;
73697;SDS011;62004;42.566;23.164;2023-02-05T00:08:03;29.07;;;26.90;;
73697;SDS011;62004;42.566;23.164;2023-02-05T00:10:28;35.72;;;33.30;;
73697;SDS011;62004;42.566;23.164;2023-02-05T00:12:53;26.67;;;24.90;;
73697;SDS011;62004;42.566;23.164;2023-02-05T00:15:19;23.17;;;21.83;;
73697;SDS011;62004;42.566;23.164;2023-02-05T00:17:44;26.37;;;24.80;;
73697;SDS011;62004;42.566;23.164;2023-02-05T00:20:09;32.87;;;30.73;;
73697;SDS011;62004;42.566;23.164;2023-02-05T00:22:35;30.40;;;28.35;;
73697;SDS011;62004;42.566;23.164;2023-02-05T00:25:00;33.30;;;31.03;;
73697;SDS011;62004;42.566;23.164;2023-02-05T00:27:25;30.25;;;28.17;;
73697;SDS011;62004;42.566;23.164;2023-02-05T00:29:50;24.70;;;23.27;;
73697;SDS011;62004;42.566;23.164;2023-02-05T00:32:16;27.87;;;26.10;;
73697;SDS011;62004;42.566;23.164;2023-02-05T00:34:41;36.13;;;33.53;;
73697;SDS011;62004;42.566;23.164;2023-02-05T00:37:06;45.97;;;42.97;;
73697;SDS011;62004;42.566;23.164;2023-02-05T00:39:32;47.70;;;44.50;;
73697;SDS011;62004;42.566;23.164;2023-02-05T00:41:57;49.97;;;46.57;;
73697;SDS011;62004;42.566;23.164;2023-02-05T00:44:22;49.13;;;45.80;;
73697;SDS011;62004;42.566;23.164;2023-02-05T00:46:47;49.70;;;46.37;;
73697;SDS011;62004;42.566;23.164;2023-02-05T00:49:13;49.50;;;46.20;;
73697;SDS011;62004;42.566;23.164;2023-02-05T00:51:38;47.10;;;43.83;;
73697;SDS011;62004;42.566;23.164;2023-02-05T00:54:03;55.33;;;51.60;;
73697;SDS011;62004;42.566;23.164;2023-02-05T00:56:28;45.77;;;42.67;;
73697;SDS011;62004;42.566;23.164;2023-02-05T00:58:54;47.83;;;44.50;;
73697;SDS011;62004;42.566;23.164;2023-02-05T01:01:21;46.42;;;43.33;;
73697;SDS011;62004;42.566;23.164;2023-02-05T01:03:46;49.40;;;46.07;;
73697;SDS011;62004;42.566;23.164;2023-02-05T01:06:11;61.10;;;57.10;;
73697;SDS011;62004;42.566;23.164;2023-02-05T01:08:37;54.43;;;50.77;;
73697;SDS011;62004;42.566;23.164;2023-02-05T01:11:05;55.80;;;52.03;;
73697;SDS011;62004;42.566;23.164;2023-02-05T01:13:30;65.68;;;61.28;;
73697;SDS011;62004;42.566;23.164;2023-02-05T01:15:55;64.83;;;60.43;;
73697;SDS011;62004;42.566;23.164;2023-02-05T01:18:21;63.57;;;59.27;;
73697;SDS011;62004;42.566;23.164;2023-02-05T01:20:46;67.70;;;63.20;;
73697;SDS011;62004;42.566;23.164;2023-02-05T01:23:11;66.83;;;62.20;;
73697;SDS011;62004;42.566;23.164;2023-02-05T01:25:36;72.83;;;67.93;;
73697;SDS011;62004;42.566;23.164;2023-02-05T01:28:02;81.55;;;75.65;;
73697;SDS011;62004;42.566;23.164;2023-02-05T01:30:27;77.90;;;72.75;;
73697;SDS011;62004;42.566;23.164;2023-02-05T01:32:53;77.57;;;72.40;;
73697;SDS011;62004;42.566;23.164;2023-02-05T01:35:18;87.03;;;81.03;;
73697;SDS011;62004;42.566;23.164;2023-02-05T01:37:43;81.43;;;75.83;;
73697;SDS011;62004;42.566;23.164;2023-02-05T01:40:09;78.57;;;73.37;;
73697;SDS011;62004;42.566;23.164;2023-02-05T01:42:36;80.35;;;74.95;;
73697;SDS011;62004;42.566;23.164;2023-02-05T01:47:46;61.85;;;57.67;;
73697;SDS011;62004;42.566;23.164;2023-02-05T01:50:11;62.70;;;58.47;;
73697;SDS011;62004;42.566;23.164;2023-02-05T01:52:36;85.53;;;79.70;;
73697;SDS011;62004;42.566;23.164;2023-02-05T01:55:02;80.93;;;75.38;;
73697;SDS011;62004;42.566;23.164;2023-02-05T01:57:27;77.43;;;72.22;;
73697;SDS011;62004;42.566;23.164;2023-02-05T01:59:53;74.13;;;69.07;;
73697;SDS011;62004;42.566;23.164;2023-02-05T02:02:18;74.60;;;69.63;;
73697;SDS011;62004;42.566;23.164;2023-02-05T02:04:44;79.67;;;74.20;;
73697;SDS011;62004;42.566;23.164;2023-02-05T02:07:11;74.40;;;69.28;;
73697;SDS011;62004;42.566;23.164;2023-02-05T02:09:38;74.88;;;69.88;;
73697;SDS011;62004;42.566;23.164;2023-02-05T02:12:04;80.80;;;75.47;;
73697;SDS011;62004;42.566;23.164;2023-02-05T02:14:30;96.63;;;90.25;;
73697;SDS011;62004;42.566;23.164;2023-02-05T02:16:55;98.32;;;91.75;;
73697;SDS011;62004;42.566;23.164;2023-02-05T02:19:26;90.75;;;84.93;;
73697;SDS011;62004;42.566;23.164;2023-02-05T02:29:56;121.40;;;113.53;;
73697;SDS011;62004;42.566;23.164;2023-02-05T02:32:24;124.57;;;116.32;;
73697;SDS011;62004;42.566;23.164;2023-02-05T02:34:55;111.88;;;104.68;;
73697;SDS011;62004;42.566;23.164;2023-02-05T02:40:10;107.78;;;100.97;;
73697;SDS011;62004;42.566;23.164;2023-02-05T02:42:51;116.95;;;109.40;;
73697;SDS011;62004;42.566;23.164;2023-02-05T02:45:19;110.47;;;103.53;;
73697;SDS011;62004;42.566;23.164;2023-02-05T02:47:47;117.63;;;110.05;;
73697;SDS011;62004;42.566;23.164;2023-02-05T02:50:35;114.75;;;107.38;;
73697;SDS011;62004;42.566;23.164;2023-02-05T02:53:00;110.50;;;103.50;;
73697;SDS011;62004;42.566;23.164;2023-02-05T02:55:26;111.20;;;104.22;;
73697;SDS011;62004;42.566;23.164;2023-02-05T02:57:53;104.88;;;98.15;;
73697;SDS011;62004;42.566;23.164;2023-02-05T03:00:21;108.65;;;101.47;;
73697;SDS011;62004;42.566;23.164;2023-02-05T03:02:47;108.30;;;101.20;;
73697;SDS011;62004;42.566;23.164;2023-02-05T03:05:15;106.60;;;99.65;;
73697;SDS011;62004;42.566;23.164;2023-02-05T03:07:46;112.30;;;105.05;;
73697;SDS011;62004;42.566;23.164;2023-02-05T03:10:17;116.97;;;107.80;;
73697;SDS011;62004;42.566;23.164;2023-02-05T03:12:44;112.78;;;105.45;;
73697;SDS011;62004;42.566;23.164;2023-02-05T03:15:09;118.30;;;110.65;;
73697;SDS011;62004;42.566;23.164;2023-02-05T03:17:35;109.38;;;102.55;;
73697;SDS011;62004;42.566;23.164;2023-02-05T03:20:05;108.28;;;101.32;;
73697;SDS011;62004;42.566;23.164;2023-02-05T03:22:32;107.10;;;100.28;;
73697;SDS011;62004;42.566;23.164;2023-02-05T03:24:57;110.47;;;103.50;;
73697;SDS011;62004;42.566;23.164;2023-02-05T03:27:23;105.10;;;98.43;;
73697;SDS011;62004;42.566;23.164;2023-02-05T03:29:48;107.17;;;100.23;;
73697;SDS011;62004;42.566;23.164;2023-02-05T03:40:00;101.90;;;95.45;;
73697;SDS011;62004;42.566;23.164;2023-02-05T03:42:35;112.13;;;105.20;;
73697;SDS011;62004;42.566;23.164;2023-02-05T03:55:40;114.88;;;107.75;;
73697;SDS011;62004;42.566;23.164;2023-02-05T03:58:14;110.47;;;103.47;;
73697;SDS011;62004;42.566;23.164;2023-02-05T04:00:42;110.95;;;103.93;;
73697;SDS011;62004;42.566;23.164;2023-02-05T04:03:08;108.10;;;101.13;;
73697;SDS011;62004;42.566;23.164;2023-02-05T04:05:34;110.28;;;103.28;;
73697;SDS011;62004;42.566;23.164;2023-02-05T04:07:59;106.05;;;99.25;;
73697;SDS011;62004;42.566;23.164;2023-02-05T04:10:24;111.95;;;104.72;;
73697;SDS011;62004;42.566;23.164;2023-02-05T04:12:50;125.53;;;109.45;;
73697;SDS011;62004;42.566;23.164;2023-02-05T04:15:15;109.87;;;102.93;;
73697;SDS011;62004;42.566;23.164;2023-02-05T04:17:40;104.13;;;97.53;;
73697;SDS011;62004;42.566;23.164;2023-02-05T04:20:06;115.70;;;108.27;;
73697;SDS011;62004;42.566;23.164;2023-02-05T04:22:31;106.43;;;99.75;;
73697;SDS011;62004;42.566;23.164;2023-02-05T04:24:57;104.75;;;98.15;;
73697;SDS011;62004;42.566;23.164;2023-02-05T04:27:22;105.63;;;98.93;;
73697;SDS011;62004;42.566;23.164;2023-02-05T04:29:47;103.45;;;96.65;;
73697;SDS011;62004;42.566;23.164;2023-02-05T04:32:13;107.23;;;100.53;;
73697;SDS011;62004;42.566;23.164;2023-02-05T04:34:38;107.72;;;101.00;;
73697;SDS011;62004;42.566;23.164;2023-02-05T04:37:03;103.90;;;97.03;;
73697;SDS011;62004;42.566;23.164;2023-02-05T04:39:29;106.93;;;100.23;;
73697;SDS011;62004;42.566;23.164;2023-02-05T04:41:54;106.57;;;99.93;;
73697;SDS011;62004;42.566;23.164;2023-02-05T04:44:19;108.73;;;101.77;;
73697;SDS011;62004;42.566;23.164;2023-02-05T04:46:44;105.33;;;98.87;;
73697;SDS011;62004;42.566;23.164;2023-02-05T04:49:10;106.93;;;100.37;;
73697;SDS011;62004;42.566;23.164;2023-02-05T04:51:35;107.03;;;100.30;;
73697;SDS011;62004;42.566;23.164;2023-02-05T04:54:00;102.63;;;96.17;;
73697;SDS011;62004;42.566;23.164;2023-02-05T04:56:25;99.93;;;93.60;;
73697;SDS011;62004;42.566;23.164;2023-02-05T04:58:51;107.17;;;100.20;;
73697;SDS011;62004;42.566;23.164;2023-02-05T05:01:17;102.27;;;95.67;;
73697;SDS011;62004;42.566;23.164;2023-02-05T05:03:43;100.93;;;94.65;;
73697;SDS011;62004;42.566;23.164;2023-02-05T05:06:08;105.00;;;98.27;;
73697;SDS011;62004;42.566;23.164;2023-02-05T05:08:34;102.03;;;95.47;;
73697;SDS011;62004;42.566;23.164;2023-02-05T05:10:59;97.80;;;91.72;;
73697;SDS011;62004;42.566;23.164;2023-02-05T05:13:31;97.65;;;91.57;;
73697;SDS011;62004;42.566;23.164;2023-02-05T05:15:56;100.15;;;93.95;;
73697;SDS011;62004;42.566;23.164;2023-02-05T05:18:21;99.90;;;93.53;;
73697;SDS011;62004;42.566;23.164;2023-02-05T05:20:46;105.53;;;98.63;;
73697;SDS011;62004;42.566;23.164;2023-02-05T05:23:12;106.63;;;99.82;;
73697;SDS011;62004;42.566;23.164;2023-02-05T05:25:43;107.77;;;101.00;;
73697;SDS011;62004;42.566;23.164;2023-02-05T05:28:09;106.15;;;99.53;;
73697;SDS011;62004;42.566;23.164;2023-02-05T05:30:36;106.22;;;99.22;;
73697;SDS011;62004;42.566;23.164;2023-02-05T05:33:01;107.03;;;100.35;;
73697;SDS011;62004;42.566;23.164;2023-02-05T05:35:27;108.50;;;101.63;;
73697;SDS011;62004;42.566;23.164;2023-02-05T05:37:52;109.27;;;102.37;;
73697;SDS011;62004;42.566;23.164;2023-02-05T05:40:19;105.20;;;98.45;;
73697;SDS011;62004;42.566;23.164;2023-02-05T05:43:03;105.45;;;98.68;;
73697;SDS011;62004;42.566;23.164;2023-02-05T05:45:47;109.78;;;102.90;;
73697;SDS011;62004;42.566;23.164;2023-02-05T05:48:13;106.20;;;99.43;;
73697;SDS011;62004;42.566;23.164;2023-02-05T05:50:38;107.97;;;101.13;;
73697;SDS011;62004;42.566;23.164;2023-02-05T05:53:03;101.67;;;95.23;;
73697;SDS011;62004;42.566;23.164;2023-02-05T05:55:29;103.03;;;96.40;;
73697;SDS011;62004;42.566;23.164;2023-02-05T05:57:54;107.03;;;100.13;;
73697;SDS011;62004;42.566;23.164;2023-02-05T06:00:19;107.70;;;100.93;;
73697;SDS011;62004;42.566;23.164;2023-02-05T06:02:44;107.93;;;101.05;;
73697;SDS011;62004;42.566;23.164;2023-02-05T06:05:11;104.17;;;97.43;;
73697;SDS011;62004;42.566;23.164;2023-02-05T06:07:36;105.88;;;99.20;;
73697;SDS011;62004;42.566;23.164;2023-02-05T06:10:02;101.77;;;95.40;;
73697;SDS011;62004;42.566;23.164;2023-02-05T06:12:27;97.72;;;91.38;;
73697;SDS011;62004;42.566;23.164;2023-02-05T06:14:52;97.83;;;91.77;;
73697;SDS011;62004;42.566;23.164;2023-02-05T06:17:17;103.87;;;97.17;;
73697;SDS011;62004;42.566;23.164;2023-02-05T06:19:43;100.03;;;93.70;;
73697;SDS011;62004;42.566;23.164;2023-02-05T06:22:08;99.10;;;92.77;;
73697;SDS011;62004;42.566;23.164;2023-02-05T06:24:33;84.32;;;78.90;;
73697;SDS011;62004;42.566;23.164;2023-02-05T06:26:59;86.33;;;80.87;;
73697;SDS011;62004;42.566;23.164;2023-02-05T06:29:24;85.13;;;79.82;;
73697;SDS011;62004;42.566;23.164;2023-02-05T06:31:49;86.37;;;80.63;;
73697;SDS011;62004;42.566;23.164;2023-02-05T06:34:15;92.57;;;86.60;;
73697;SDS011;62004;42.566;23.164;2023-02-05T06:36:40;90.25;;;84.40;;
73697;SDS011;62004;42.566;23.164;2023-02-05T06:39:06;101.00;;;94.47;;
73697;SDS011;62004;42.566;23.164;2023-02-05T06:41:31;94.30;;;88.40;;
73697;SDS011;62004;42.566;23.164;2023-02-05T06:43:56;94.27;;;88.17;;
73697;SDS011;62004;42.566;23.164;2023-02-05T06:46:21;93.93;;;87.93;;
73697;SDS011;62004;42.566;23.164;2023-02-05T06:48:47;108.17;;;101.23;;
73697;SDS011;62004;42.566;23.164;2023-02-05T06:51:12;109.93;;;102.63;;
73697;SDS011;62004;42.566;23.164;2023-02-05T06:53:37;101.85;;;95.38;;
73697;SDS011;62004;42.566;23.164;2023-02-05T06:56:03;111.30;;;102.57;;
73697;SDS011;62004;42.566;23.164;2023-02-05T06:58:28;109.30;;;102.35;;
73697;SDS011;62004;42.566;23.164;2023-02-05T07:00:53;102.80;;;96.10;;
73697;SDS011;62004;42.566;23.164;2023-02-05T07:03:19;103.87;;;97.33;;
73697;SDS011;62004;42.566;23.164;2023-02-05T07:05:44;100.13;;;93.70;;
73697;SDS011;62004;42.566;23.164;2023-02-05T07:08:09;92.97;;;87.07;;
73697;SDS011;62004;42.566;23.164;2023-02-05T07:10:34;91.77;;;85.90;;
73697;SDS011;62004;42.566;23.164;2023-02-05T07:13:00;93.17;;;87.17;;
73697;SDS011;62004;42.566;23.164;2023-02-05T07:15:25;89.17;;;83.40;;
73697;SDS011;62004;42.566;23.164;2023-02-05T07:17:50;90.93;;;85.03;;
73697;SDS011;62004;42.566;23.164;2023-02-05T07:20:15;98.83;;;90.63;;
73697;SDS011;62004;42.566;23.164;2023-02-05T07:22:42;100.78;;;94.35;;
73697;SDS011;62004;42.566;23.164;2023-02-05T07:25:08;96.20;;;90.20;;
73697;SDS011;62004;42.566;23.164;2023-02-05T07:27:33;94.93;;;88.80;;
73697;SDS011;62004;42.566;23.164;2023-02-05T07:29:58;100.53;;;94.00;;
73697;SDS011;62004;42.566;23.164;2023-02-05T07:32:24;96.68;;;90.75;;
73697;SDS011;62004;42.566;23.164;2023-02-05T07:34:49;98.72;;;92.30;;
73697;SDS011;62004;42.566;23.164;2023-02-05T07:37:14;105.57;;;98.77;;
73697;SDS011;62004;42.566;23.164;2023-02-05T07:39:40;99.60;;;93.03;;
73697;SDS011;62004;42.566;23.164;2023-02-05T07:42:05;95.82;;;89.95;;
73697;SDS011;62004;42.566;23.164;2023-02-05T07:44:30;94.77;;;88.53;;
73697;SDS011;62004;42.566;23.164;2023-02-05T07:46:55;100.53;;;94.00;;
73697;SDS011;62004;42.566;23.164;2023-02-05T07:49:21;96.77;;;90.53;;
73697;SDS011;62004;42.566;23.164;2023-02-05T07:51:46;97.93;;;91.68;;
73697;SDS011;62004;42.566;23.164;2023-02-05T07:54:12;101.95;;;95.13;;
73697;SDS011;62004;42.566;23.164;2023-02-05T07:56:39;102.47;;;95.93;;
73697;SDS011;62004;42.566;23.164;2023-02-05T07:59:05;98.53;;;91.47;;
73697;SDS011;62004;42.566;23.164;2023-02-05T08:01:31;98.80;;;92.55;;
73697;SDS011;62004;42.566;23.164;2023-02-05T08:03:56;100.78;;;93.97;;
73697;SDS011;62004;42.566;23.164;2023-02-05T08:06:21;100.07;;;93.88;;
73697;SDS011;62004;42.566;23.164;2023-02-05T08:08:47;100.80;;;94.25;;
73697;SDS011;62004;42.566;23.164;2023-02-05T08:11:13;97.77;;;91.47;;
73697;SDS011;62004;42.566;23.164;2023-02-05T08:13:39;97.07;;;90.65;;
73697;SDS011;62004;42.566;23.164;2023-02-05T08:16:05;95.73;;;89.00;;
73697;SDS011;62004;42.566;23.164;2023-02-05T08:18:30;98.30;;;91.38;;
73697;SDS011;62004;42.566;23.164;2023-02-05T08:20:55;104.57;;;97.93;;
73697;SDS011;62004;42.566;23.164;2023-02-05T08:23:21;101.80;;;95.37;;
73697;SDS011;62004;42.566;23.164;2023-02-05T08:25:46;100.38;;;93.95;;
73697;SDS011;62004;42.566;23.164;2023-02-05T08:28:12;96.90;;;90.50;;
73697;SDS011;62004;42.566;23.164;2023-02-05T08:30:37;99.43;;;93.03;;
73697;SDS011;62004;42.566;23.164;2023-02-05T08:33:03;104.68;;;98.13;;
73697;SDS011;62004;42.566;23.164;2023-02-05T08:35:28;104.53;;;97.73;;
73697;SDS011;62004;42.566;23.164;2023-02-05T08:37:53;94.00;;;88.00;;
73697;SDS011;62004;42.566;23.164;2023-02-05T08:40:19;93.50;;;87.57;;
73697;SDS011;62004;42.566;23.164;2023-02-05T08:42:44;98.05;;;91.15;;
73697;SDS011;62004;42.566;23.164;2023-02-05T08:45:10;97.22;;;90.55;;
73697;SDS011;62004;42.566;23.164;2023-02-05T08:47:36;92.95;;;86.63;;
73697;SDS011;62004;42.566;23.164;2023-02-05T08:50:02;98.45;;;91.38;;
73697;SDS011;62004;42.566;23.164;2023-02-05T08:52:27;91.53;;;85.78;;
73697;SDS011;62004;42.566;23.164;2023-02-05T08:54:53;97.43;;;91.17;;
73697;SDS011;62004;42.566;23.164;2023-02-05T08:57:18;94.43;;;88.10;;
73697;SDS011;62004;42.566;23.164;2023-02-05T08:59:43;95.37;;;89.23;;
73697;SDS011;62004;42.566;23.164;2023-02-05T09:02:11;93.77;;;87.53;;
73697;SDS011;62004;42.566;23.164;2023-02-05T09:04:37;93.80;;;87.65;;
73697;SDS011;62004;42.566;23.164;2023-02-05T09:07:02;92.70;;;86.57;;
73697;SDS011;62004;42.566;23.164;2023-02-05T09:09:28;99.07;;;92.77;;
73697;SDS011;62004;42.566;23.164;2023-02-05T09:11:55;94.32;;;88.22;;
73697;SDS011;62004;42.566;23.164;2023-02-05T09:14:22;99.10;;;92.80;;
73697;SDS011;62004;42.566;23.164;2023-02-05T09:16:47;98.43;;;92.00;;
73697;SDS011;62004;42.566;23.164;2023-02-05T09:19:13;92.07;;;86.20;;
73697;SDS011;62004;42.566;23.164;2023-02-05T09:21:39;92.97;;;87.00;;
73697;SDS011;62004;42.566;23.164;2023-02-05T09:24:04;102.97;;;96.32;;
73697;SDS011;62004;42.566;23.164;2023-02-05T09:26:30;96.27;;;90.10;;
73697;SDS011;62004;42.566;23.164;2023-02-05T09:28:55;96.68;;;90.57;;
73697;SDS011;62004;42.566;23.164;2023-02-05T09:31:21;104.22;;;97.43;;
73697;SDS011;62004;42.566;23.164;2023-02-05T09:33:46;106.35;;;99.32;;
73697;SDS011;62004;42.566;23.164;2023-02-05T09:36:16;105.30;;;98.37;;
73697;SDS011;62004;42.566;23.164;2023-02-05T09:38:41;102.28;;;95.60;;
73697;SDS011;62004;42.566;23.164;2023-02-05T09:43:51;105.63;;;98.68;;
73697;SDS011;62004;42.566;23.164;2023-02-05T09:51:15;105.28;;;98.47;;
73697;SDS011;62004;42.566;23.164;2023-02-05T09:53:43;103.60;;;97.03;;
73697;SDS011;62004;42.566;23.164;2023-02-05T09:56:09;112.30;;;105.18;;
73697;SDS011;62004;42.566;23.164;2023-02-05T09:58:39;112.97;;;105.55;;
73697;SDS011;62004;42.566;23.164;2023-02-05T10:01:06;110.82;;;103.82;;
73697;SDS011;62004;42.566;23.164;2023-02-05T10:08:46;113.63;;;105.80;;
73697;SDS011;62004;42.566;23.164;2023-02-05T10:11:28;110.50;;;103.50;;
73697;SDS011;62004;42.566;23.164;2023-02-05T10:14:14;111.63;;;104.55;;
73697;SDS011;62004;42.566;23.164;2023-02-05T10:29:52;116.32;;;108.80;;
73697;SDS011;62004;42.566;23.164;2023-02-05T10:32:23;111.90;;;104.82;;
73697;SDS011;62004;42.566;23.164;2023-02-05T10:34:51;128.25;;;120.00;;
73697;SDS011;62004;42.566;23.164;2023-02-05T10:37:19;123.35;;;114.00;;
73697;SDS011;62004;42.566;23.164;2023-02-05T10:39:45;126.00;;;110.82;;
73697;SDS011;62004;42.566;23.164;2023-02-05T10:42:25;115.07;;;107.75;;
73697;SDS011;62004;42.566;23.164;2023-02-05T10:47:39;114.22;;;106.95;;
73697;SDS011;62004;42.566;23.164;2023-02-05T10:52:52;116.72;;;109.30;;
73697;SDS011;62004;42.566;23.164;2023-02-05T10:55:17;117.87;;;110.50;;
73697;SDS011;62004;42.566;23.164;2023-02-05T10:57:43;129.38;;;121.25;;
73697;SDS011;62004;42.566;23.164;2023-02-05T11:00:13;120.13;;;112.50;;
73697;SDS011;62004;42.566;23.164;2023-02-05T11:02:40;113.32;;;104.70;;
73697;SDS011;62004;42.566;23.164;2023-02-05T11:05:51;111.57;;;104.60;;
73697;SDS011;62004;42.566;23.164;2023-02-05T11:07:52;118.97;;;111.53;;
73697;SDS011;62004;42.566;23.164;2023-02-05T11:10:22;116.13;;;108.05;;
73697;SDS011;62004;42.566;23.164;2023-02-05T11:12:48;125.85;;;115.85;;
73697;SDS011;62004;42.566;23.164;2023-02-05T11:15:19;113.53;;;106.32;;
73697;SDS011;62004;42.566;23.164;2023-02-05T11:17:48;125.32;;;112.53;;
73697;SDS011;62004;42.566;23.164;2023-02-05T11:22:42;114.70;;;107.40;;
73697;SDS011;62004;42.566;23.164;2023-02-05T11:25:13;123.75;;;115.43;;
73697;SDS011;62004;42.566;23.164;2023-02-05T11:27:40;127.95;;;119.93;;
73697;SDS011;62004;42.566;23.164;2023-02-05T11:30:16;121.13;;;113.43;;
73697;SDS011;62004;42.566;23.164;2023-02-05T11:32:42;118.50;;;111.07;;
73697;SDS011;62004;42.566;23.164;2023-02-05T11:35:18;118.40;;;111.03;;
73697;SDS011;62004;42.566;23.164;2023-02-05T11:37:44;121.50;;;113.97;;
73697;SDS011;62004;42.566;23.164;2023-02-05T11:40:18;110.72;;;103.85;;
73697;SDS011;62004;42.566;23.164;2023-02-05T11:42:46;115.88;;;108.15;;
73697;SDS011;62004;42.566;23.164;2023-02-05T11:45:14;111.90;;;104.63;;
73697;SDS011;62004;42.566;23.164;2023-02-05T11:47:43;114.82;;;107.53;;
73697;SDS011;62004;42.566;23.164;2023-02-05T11:50:25;115.97;;;108.63;;
73697;SDS011;62004;42.566;23.164;2023-02-05T11:52:51;115.60;;;108.25;;
73697;SDS011;62004;42.566;23.164;2023-02-05T11:55:30;115.40;;;108.00;;
73697;SDS011;62004;42.566;23.164;2023-02-05T11:58:39;115.78;;;108.50;;
73697;SDS011;62004;42.566;23.164;2023-02-05T12:00:53;112.88;;;105.57;;
73697;SDS011;62004;42.566;23.164;2023-02-05T12:03:21;110.75;;;103.82;;
73697;SDS011;62004;42.566;23.164;2023-02-05T12:05:52;110.22;;;103.20;;
73697;SDS011;62004;42.566;23.164;2023-02-05T12:49:32;120.93;;;113.13;;
73697;SDS011;62004;42.566;23.164;2023-02-05T12:57:18;118.70;;;110.95;;
73697;SDS011;62004;42.566;23.164;2023-02-05T12:59:57;125.05;;;116.70;;
73697;SDS011;62004;42.566;23.164;2023-02-05T13:12:38;131.65;;;123.13;;
73697;SDS011;62004;42.566;23.164;2023-02-05T13:15:16;123.25;;;115.22;;
73697;SDS011;62004;42.566;23.164;2023-02-05T13:17:59;121.00;;;113.35;;
73697;SDS011;62004;42.566;23.164;2023-02-05T13:20:27;125.38;;;117.05;;
73697;SDS011;62004;42.566;23.164;2023-02-05T13:23:14;129.35;;;120.78;;
73697;SDS011;62004;42.566;23.164;2023-02-05T13:25:58;136.50;;;127.47;;
73697;SDS011;62004;42.566;23.164;2023-02-05T13:28:50;124.15;;;115.93;;
73697;SDS011;62004;42.566;23.164;2023-02-05T13:33:45;129.85;;;121.22;;
73697;SDS011;62004;42.566;23.164;2023-02-05T13:41:22;138.57;;;129.68;;
73697;SDS011;62004;42.566;23.164;2023-02-05T13:49:23;126.53;;;118.28;;
73697;SDS011;62004;42.566;23.164;2023-02-05T13:52:01;125.40;;;117.20;;
73697;SDS011;62004;42.566;23.164;2023-02-05T14:01:54;131.37;;;122.87;;
73697;SDS011;62004;42.566;23.164;2023-02-05T14:09:29;128.27;;;120.00;;
73697;SDS011;62004;42.566;23.164;2023-02-05T14:11:57;131.80;;;123.47;;
73697;SDS011;62004;42.566;23.164;2023-02-05T14:14:27;126.38;;;118.22;;
73697;SDS011;62004;42.566;23.164;2023-02-05T14:16:53;127.95;;;119.72;;
73697;SDS011;62004;42.566;23.164;2023-02-05T14:21:48;133.25;;;124.47;;
73697;SDS011;62004;42.566;23.164;2023-02-05T14:24:25;131.85;;;123.20;;
73697;SDS011;62004;42.566;23.164;2023-02-05T14:26:51;135.75;;;127.00;;
73697;SDS011;62004;42.566;23.164;2023-02-05T14:29:39;131.82;;;123.35;;
73697;SDS011;62004;42.566;23.164;2023-02-05T14:32:06;133.30;;;124.53;;
73697;SDS011;62004;42.566;23.164;2023-02-05T14:36:56;139.20;;;130.20;;
73697;SDS011;62004;42.566;23.164;2023-02-05T14:39:26;145.77;;;136.13;;
73697;SDS011;62004;42.566;23.164;2023-02-05T14:41:54;145.63;;;136.40;;
73697;SDS011;62004;42.566;23.164;2023-02-05T14:44:24;155.32;;;145.38;;
73697;SDS011;62004;42.566;23.164;2023-02-05T14:49:22;137.68;;;129.02;;
73697;SDS011;62004;42.566;23.164;2023-02-05T14:51:50;143.73;;;134.35;;
73697;SDS011;62004;42.566;23.164;2023-02-05T14:54:17;139.75;;;130.80;;
73697;SDS011;62004;42.566;23.164;2023-02-05T14:59:20;135.55;;;126.78;;
73697;SDS011;62004;42.566;23.164;2023-02-05T15:01:47;133.30;;;124.90;;
73697;SDS011;62004;42.566;23.164;2023-02-05T15:06:58;133.82;;;125.18;;
73697;SDS011;62004;42.566;23.164;2023-02-05T15:09:35;137.00;;;128.30;;
73697;SDS011;62004;42.566;23.164;2023-02-05T15:12:07;131.95;;;123.47;;
73697;SDS011;62004;42.566;23.164;2023-02-05T15:15:05;131.00;;;122.53;;
73697;SDS011;62004;42.566;23.164;2023-02-05T15:20:17;133.35;;;124.65;;
73697;SDS011;62004;42.566;23.164;2023-02-05T15:22:39;127.60;;;119.30;;
73697;SDS011;62004;42.566;23.164;2023-02-05T15:25:09;132.98;;;124.53;;
73697;SDS011;62004;42.566;23.164;2023-02-05T15:27:42;129.05;;;120.80;;
73697;SDS011;62004;42.566;23.164;2023-02-05T15:30:13;129.73;;;121.22;;
73697;SDS011;62004;42.566;23.164;2023-02-05T15:32:46;135.88;;;127.03;;
73697;SDS011;62004;42.566;23.164;2023-02-05T15:35:15;134.45;;;125.85;;
73697;SDS011;62004;42.566;23.164;2023-02-05T15:40:09;131.10;;;122.63;;
73697;SDS011;62004;42.566;23.164;2023-02-05T15:42:37;154.18;;;144.27;;
73697;SDS011;62004;42.566;23.164;2023-02-05T15:50:12;127.20;;;119.00;;
73697;SDS011;62004;42.566;23.164;2023-02-05T15:52:37;132.45;;;123.80;;
73697;SDS011;62004;42.566;23.164;2023-02-05T15:55:07;136.93;;;128.05;;
73697;SDS011;62004;42.566;23.164;2023-02-05T15:57:34;139.15;;;129.95;;
73697;SDS011;62004;42.566;23.164;2023-02-05T15:59:59;135.10;;;126.38;;
73697;SDS011;62004;42.566;23.164;2023-02-05T16:02:26;135.45;;;126.82;;
73697;SDS011;62004;42.566;23.164;2023-02-05T16:04:56;137.48;;;128.70;;
73697;SDS011;62004;42.566;23.164;2023-02-05T16:09:49;140.13;;;130.93;;
73697;SDS011;62004;42.566;23.164;2023-02-05T16:12:14;131.13;;;122.53;;
73697;SDS011;62004;42.566;23.164;2023-02-05T16:14:40;134.90;;;126.18;;
73697;SDS011;62004;42.566;23.164;2023-02-05T16:17:27;129.65;;;121.07;;
73697;SDS011;62004;42.566;23.164;2023-02-05T16:20:00;135.48;;;126.50;;
73697;SDS011;62004;42.566;23.164;2023-02-05T16:25:01;131.85;;;123.18;;
73697;SDS011;62004;42.566;23.164;2023-02-05T16:29:57;139.20;;;130.32;;
73697;SDS011;62004;42.566;23.164;2023-02-05T16:32:29;133.75;;;125.18;;
73697;SDS011;62004;42.566;23.164;2023-02-05T16:34:56;133.80;;;124.78;;
73697;SDS011;62004;42.566;23.164;2023-02-05T16:37:22;141.65;;;132.32;;
73697;SDS011;62004;42.566;23.164;2023-02-05T16:39:50;133.63;;;125.10;;
73697;SDS011;62004;42.566;23.164;2023-02-05T16:44:50;131.85;;;123.30;;
73697;SDS011;62004;42.566;23.164;2023-02-05T16:47:26;134.45;;;126.00;;
73697;SDS011;62004;42.566;23.164;2023-02-05T16:49:51;134.60;;;125.93;;
73697;SDS011;62004;42.566;23.164;2023-02-05T16:54:48;125.88;;;117.75;;
73697;SDS011;62004;42.566;23.164;2023-02-05T16:57:14;136.73;;;127.73;;
73697;SDS011;62004;42.566;23.164;2023-02-05T16:59:53;143.73;;;134.43;;
73697;SDS011;62004;42.566;23.164;2023-02-05T17:04:48;134.50;;;125.80;;